createdAt,value
2018-07-09T00:00:51.704Z,18.80
2018-07-09T00:03:19.872Z,18.80
2018-07-09T00:05:50.164Z,18.80
2018-07-09T00:08:18.719Z,18.60
2018-07-09T00:11:04.820Z,18.60
2018-07-09T00:18:29.735Z,18.40
2018-07-09T00:20:57.903Z,18.40
2018-07-09T00:23:26.048Z,18.40
2018-07-09T00:25:54.885Z,18.30
2018-07-09T00:28:23.458Z,18.40
2018-07-09T00:30:51.633Z,18.40
2018-07-09T00:33:20.300Z,18.40
2018-07-09T00:35:48.719Z,18.30
2018-07-09T00:40:45.662Z,18.30
2018-07-09T00:43:13.817Z,18.20
2018-07-09T00:45:41.975Z,18.20
2018-07-09T00:48:10.140Z,18.20
2018-07-09T00:50:38.301Z,18.20
2018-07-09T00:53:06.473Z,18.10
2018-07-09T00:55:34.808Z,18.10
2018-07-09T00:58:02.976Z,18.00
2018-07-09T01:00:31.121Z,18.00
2018-07-09T01:02:59.266Z,18.00
2018-07-09T01:05:27.412Z,18.00
2018-07-09T01:10:23.472Z,17.90
2018-07-09T01:12:51.635Z,17.90
2018-07-09T01:15:19.772Z,17.80
2018-07-09T01:17:47.980Z,17.70
2018-07-09T01:22:44.089Z,17.60
2018-07-09T01:25:12.250Z,17.60
2018-07-09T01:27:40.420Z,17.60
2018-07-09T01:30:12.803Z,17.60
2018-07-09T01:32:41.200Z,17.60
2018-07-09T01:35:10.495Z,17.50
2018-07-09T01:37:39.179Z,17.50
2018-07-09T01:40:07.537Z,17.40
2018-07-09T01:42:38.719Z,17.40
2018-07-09T01:47:34.842Z,17.30
2018-07-09T01:50:03.033Z,17.20
2018-07-09T01:59:55.371Z,17.20
2018-07-09T02:02:23.779Z,17.10
2018-07-09T02:04:51.926Z,17.00
2018-07-09T02:07:20.067Z,17.00
2018-07-09T02:09:48.240Z,16.90
2018-07-09T02:12:16.382Z,16.90
2018-07-09T02:14:44.523Z,16.90
2018-07-09T02:17:12.660Z,16.90
2018-07-09T02:19:41.814Z,16.90
2018-07-09T02:22:09.963Z,16.90
2018-07-09T02:24:38.120Z,16.90
2018-07-09T02:27:06.251Z,16.90
2018-07-09T02:32:02.299Z,16.90
2018-07-09T02:36:58.412Z,16.90
2018-07-09T02:39:26.582Z,16.80
2018-07-09T02:41:54.759Z,16.90
2018-07-09T02:44:22.915Z,16.80
2018-07-09T02:46:51.197Z,16.80
2018-07-09T02:49:19.638Z,16.80
2018-07-09T02:51:48.081Z,16.80
2018-07-09T02:54:16.446Z,16.70
2018-07-09T02:56:44.596Z,16.70
2018-07-09T02:59:12.722Z,16.60
2018-07-09T03:04:08.831Z,16.50
2018-07-09T03:06:36.950Z,16.50
2018-07-09T03:09:05.806Z,16.50
2018-07-09T03:11:34.058Z,16.50
2018-07-09T03:14:02.198Z,16.50
2018-07-09T03:16:35.979Z,16.50
2018-07-09T03:21:32.087Z,16.30
2018-07-09T03:24:00.243Z,16.20
2018-07-09T03:26:28.411Z,16.20
2018-07-09T03:28:56.558Z,16.20
2018-07-09T03:31:24.704Z,16.20
2018-07-09T03:38:48.722Z,16.10
2018-07-09T03:41:16.854Z,16.10
2018-07-09T03:43:44.985Z,16.10
2018-07-09T03:46:13.115Z,16.10
2018-07-09T03:48:41.267Z,16.10
2018-07-09T03:51:09.407Z,16.00
2018-07-09T03:53:37.567Z,16.00
2018-07-09T03:56:05.872Z,15.90
2018-07-09T03:58:34.017Z,16.00
2018-07-09T04:01:02.145Z,16.10
2018-07-09T04:03:30.295Z,16.00
2018-07-09T04:05:58.462Z,16.10
2018-07-09T04:08:26.614Z,16.10
2018-07-09T04:10:54.734Z,16.10
2018-07-09T04:13:22.925Z,16.00
2018-07-09T04:15:51.054Z,16.00
2018-07-09T04:18:22.736Z,16.10
2018-07-09T04:20:51.129Z,16.10
2018-07-09T04:23:19.286Z,16.10
2018-07-09T04:25:47.456Z,16.20
2018-07-09T04:28:15.608Z,16.20
2018-07-09T04:30:43.740Z,16.20
2018-07-09T04:35:39.842Z,16.30
2018-07-09T04:38:07.982Z,16.30
2018-07-09T04:40:36.175Z,16.30
2018-07-09T04:43:04.424Z,16.30
2018-07-09T04:45:32.574Z,16.40
2018-07-09T04:50:28.607Z,16.50
2018-07-09T04:52:56.743Z,16.50
2018-07-09T04:55:24.889Z,16.50
2018-07-09T04:57:53.015Z,16.60
2018-07-09T05:00:21.150Z,16.60
2018-07-09T05:02:49.302Z,16.70
2018-07-09T05:05:17.463Z,16.80
2018-07-09T05:10:13.524Z,16.80
2018-07-09T05:12:41.646Z,16.80
2018-07-09T05:15:09.806Z,16.70
2018-07-09T05:17:38.019Z,16.80
2018-07-09T05:22:34.067Z,17.00
2018-07-09T05:25:02.206Z,17.00
2018-07-09T05:27:30.363Z,17.10
2018-07-09T05:29:58.506Z,17.10
2018-07-09T05:32:26.646Z,17.10
2018-07-09T05:37:22.678Z,17.20
2018-07-09T05:42:18.755Z,17.30
2018-07-09T05:44:47.029Z,17.40
2018-07-09T05:47:15.163Z,17.50
2018-07-09T05:49:43.393Z,17.50
2018-07-09T05:52:11.517Z,17.50
2018-07-09T05:54:39.662Z,17.60
2018-07-09T05:57:07.802Z,17.60
2018-07-09T05:59:35.931Z,17.70
2018-07-09T06:02:04.066Z,17.80
2018-07-09T06:04:32.236Z,17.90
2018-07-09T06:07:00.378Z,17.90
2018-07-09T06:09:28.520Z,18.00
2018-07-09T06:11:56.667Z,18.10
2018-07-09T06:14:24.811Z,18.10
2018-07-09T06:16:53.050Z,18.10
2018-07-09T06:21:49.134Z,18.20
2018-07-09T06:24:17.271Z,18.30
2018-07-09T06:29:13.303Z,18.40
2018-07-09T06:34:09.362Z,18.40
2018-07-09T06:36:37.501Z,18.40
2018-07-09T06:39:06.494Z,18.40
2018-07-09T06:41:34.652Z,18.40
2018-07-09T06:44:02.792Z,18.60
2018-07-09T06:46:31.230Z,18.60
2018-07-09T06:48:59.376Z,18.70
2018-07-09T06:51:27.505Z,18.80
2018-07-09T06:53:55.630Z,18.90
2018-07-09T06:56:23.783Z,19.00
2018-07-09T06:58:52.272Z,19.10
2018-07-09T07:01:20.398Z,19.20
2018-07-09T07:06:16.468Z,19.20
2018-07-09T07:08:44.616Z,19.30
2018-07-09T07:13:40.690Z,19.30
2018-07-09T07:16:08.831Z,19.40
2018-07-09T07:18:36.962Z,19.60
2018-07-09T07:21:05.146Z,19.80
2018-07-09T07:23:33.234Z,19.90
2018-07-09T07:30:57.229Z,19.80
2018-07-09T07:33:25.363Z,19.80
2018-07-09T07:35:53.519Z,19.80
2018-07-09T07:38:21.791Z,19.90
2018-07-09T07:40:49.926Z,20.10
2018-07-09T07:43:18.065Z,20.20
2018-07-09T07:45:46.183Z,20.40
2018-07-09T07:50:42.377Z,20.50
2018-07-09T07:53:10.462Z,20.30
2018-07-09T07:55:38.607Z,20.30
2018-07-09T07:58:06.740Z,20.40
2018-07-09T08:03:02.845Z,20.60
2018-07-09T08:05:30.935Z,20.70
2018-07-09T08:07:59.074Z,20.80
2018-07-09T08:10:27.236Z,20.80
2018-07-09T08:13:27.175Z,20.90
2018-07-09T08:15:23.491Z,20.90
2018-07-09T08:17:51.650Z,20.90
2018-07-09T08:20:19.778Z,20.80
2018-07-09T08:22:47.924Z,20.90
2018-07-09T08:25:16.130Z,20.90
2018-07-09T08:27:44.207Z,21.00
2018-07-09T08:32:40.275Z,21.20
2018-07-09T08:35:08.402Z,21.40
2018-07-09T08:37:36.567Z,21.40
2018-07-09T08:40:04.719Z,21.40
2018-07-09T08:42:32.854Z,21.40
2018-07-09T08:45:00.983Z,21.30
2018-07-09T08:47:29.139Z,21.40
2018-07-09T08:49:57.340Z,21.40
2018-07-09T08:52:25.500Z,21.50
2018-07-09T08:54:53.628Z,21.40
2018-07-09T08:57:21.762Z,21.60
2018-07-09T08:59:49.911Z,21.80
2018-07-09T09:02:18.070Z,22.00
2018-07-09T09:04:46.374Z,22.00
2018-07-09T09:07:14.510Z,22.00
2018-07-09T09:09:42.647Z,22.00
2018-07-09T09:14:38.675Z,22.20
2018-07-09T09:17:06.791Z,22.40
2018-07-09T09:19:34.982Z,22.30
2018-07-09T09:22:03.102Z,22.40
2018-07-09T09:26:59.165Z,22.60
2018-07-09T09:29:27.315Z,22.50
2018-07-09T09:34:23.415Z,22.60
2018-07-09T09:36:51.537Z,22.80
2018-07-09T09:41:47.591Z,22.90
2018-07-09T09:44:15.737Z,23.00
2018-07-09T09:46:43.856Z,23.20
2018-07-09T09:49:12.002Z,23.10
2018-07-09T09:54:08.062Z,23.40
2018-07-09T09:56:36.198Z,23.50
2018-07-09T09:59:04.324Z,23.60
2018-07-09T10:01:32.458Z,23.70
2018-07-09T10:06:28.593Z,23.60
2018-07-09T10:08:56.656Z,23.80
2018-07-09T10:11:24.789Z,23.90
2018-07-09T10:13:52.938Z,24.10
2018-07-09T10:16:21.060Z,24.10
2018-07-09T10:18:49.202Z,24.40
2018-07-09T10:21:17.335Z,24.60
2018-07-09T10:23:45.493Z,24.60
2018-07-09T10:26:13.630Z,24.60
2018-07-09T10:28:41.769Z,24.60
2018-07-09T10:31:09.907Z,24.20
2018-07-09T10:33:38.043Z,24.10
2018-07-09T10:36:06.173Z,24.00
2018-07-09T10:41:02.252Z,24.10
2018-07-09T10:43:31.406Z,24.30
2018-07-09T10:48:27.462Z,24.30
2018-07-09T10:50:55.605Z,24.50
2018-07-09T10:53:23.731Z,24.30
2018-07-09T10:55:51.878Z,24.50
2018-07-09T10:58:20.045Z,24.80
2018-07-09T11:00:48.227Z,25.20
2018-07-09T11:03:16.467Z,25.50
2018-07-09T11:05:44.651Z,25.40
2018-07-09T11:08:12.801Z,25.10
2018-07-09T11:10:40.943Z,24.80
2018-07-09T11:13:09.121Z,25.10
2018-07-09T11:15:37.250Z,25.50
2018-07-09T11:18:05.413Z,25.50
2018-07-09T11:20:33.586Z,25.50
2018-07-09T11:23:01.739Z,25.80
2018-07-09T11:25:29.892Z,25.90
2018-07-09T11:27:58.034Z,26.00
2018-07-09T11:30:26.176Z,25.80
2018-07-09T11:32:54.306Z,25.90
2018-07-09T11:35:22.439Z,25.50
2018-07-09T11:40:18.533Z,25.80
2018-07-09T11:42:46.664Z,25.90
2018-07-09T11:45:14.909Z,26.20
2018-07-09T11:47:43.052Z,26.40
2018-07-09T11:50:11.199Z,26.20
2018-07-09T11:52:39.335Z,26.20
2018-07-09T11:55:07.461Z,26.00
2018-07-09T11:57:35.609Z,26.00
2018-07-09T12:02:31.976Z,26.00
2018-07-09T12:05:00.107Z,25.70
2018-07-09T12:09:56.130Z,25.70
2018-07-09T12:12:24.260Z,25.80
2018-07-09T12:14:52.393Z,25.80
2018-07-09T12:22:16.392Z,25.80
2018-07-09T12:24:44.516Z,25.70
2018-07-09T12:27:12.670Z,25.90
2018-07-09T12:29:40.806Z,26.30
2018-07-09T12:32:08.984Z,26.70
2018-07-09T12:34:37.112Z,27.20
2018-07-09T12:37:05.394Z,27.00
2018-07-09T12:39:33.529Z,26.60
2018-07-09T12:42:01.679Z,26.50
2018-07-09T12:44:29.818Z,25.90
2018-07-09T12:46:57.959Z,25.80
2018-07-09T12:49:26.393Z,26.00
2018-07-09T12:51:54.554Z,26.00
2018-07-09T12:54:22.723Z,25.90
2018-07-09T12:56:50.859Z,25.90
2018-07-09T12:59:19.021Z,25.60
2018-07-09T13:01:47.167Z,25.50
2018-07-09T13:04:15.265Z,25.60
2018-07-09T13:06:44.017Z,25.80
2018-07-09T13:09:12.146Z,26.10
2018-07-09T13:11:40.780Z,27.00
2018-07-09T13:14:08.953Z,27.50
2018-07-09T13:16:37.089Z,27.60
2018-07-09T13:19:05.235Z,28.10
2018-07-09T13:21:33.680Z,28.90
2018-07-09T13:24:01.944Z,29.30
2018-07-09T13:26:30.132Z,28.90
2018-07-09T13:28:58.696Z,28.60
2018-07-09T13:31:26.829Z,28.00
2018-07-09T13:33:54.963Z,27.70
2018-07-09T13:36:23.107Z,27.20
2018-07-09T13:38:51.243Z,26.80
2018-07-09T13:41:19.391Z,26.50
2018-07-09T13:43:47.550Z,26.30
2018-07-09T13:46:15.723Z,26.70
2018-07-09T13:48:43.851Z,27.40
2018-07-09T13:51:11.992Z,27.60
2018-07-09T13:56:08.052Z,27.10
2018-07-09T13:58:36.175Z,27.00
2018-07-09T14:01:04.322Z,27.40
2018-07-09T14:03:32.448Z,28.20
2018-07-09T14:08:28.530Z,28.80
2018-07-09T14:10:56.683Z,28.90
2018-07-09T14:13:24.848Z,28.40
2018-07-09T14:15:52.974Z,28.20
2018-07-09T14:18:21.141Z,28.30
2018-07-09T14:20:49.266Z,28.30
2018-07-09T14:23:18.630Z,28.40
2018-07-09T14:25:46.759Z,28.30
2018-07-09T14:28:14.895Z,28.10
2018-07-09T14:30:43.059Z,27.90
2018-07-09T14:33:11.207Z,28.10
2018-07-09T14:35:39.351Z,28.10
2018-07-09T14:38:07.507Z,28.20
2018-07-09T14:40:35.647Z,28.30
2018-07-09T14:43:03.770Z,28.80
2018-07-09T14:45:31.904Z,29.90
2018-07-09T14:48:00.049Z,29.90
2018-07-09T14:50:28.191Z,29.70
2018-07-09T14:52:56.346Z,29.00
2018-07-09T14:55:24.501Z,28.80
2018-07-09T15:02:48.626Z,27.20
2018-07-09T15:05:16.756Z,27.10
2018-07-09T15:07:44.890Z,27.10
2018-07-09T15:10:13.031Z,26.90
2018-07-09T15:12:41.167Z,26.70
2018-07-09T15:15:09.303Z,26.20
2018-07-09T15:17:37.446Z,26.20
2018-07-09T15:22:33.494Z,26.30
2018-07-09T15:25:01.640Z,26.00
2018-07-09T15:27:29.782Z,25.80
2018-07-09T15:29:57.920Z,25.80
2018-07-09T15:32:29.132Z,25.80
2018-07-09T15:34:57.386Z,25.90
2018-07-09T15:37:25.773Z,25.90
2018-07-09T15:39:54.150Z,25.70
2018-07-09T15:42:22.335Z,25.60
2018-07-09T15:44:50.434Z,25.50
2018-07-09T15:47:18.576Z,25.50
2018-07-09T15:49:46.699Z,25.50
2018-07-09T15:52:15.136Z,25.50
2018-07-09T15:54:43.491Z,25.40
2018-07-09T15:57:11.639Z,25.30
2018-07-09T15:59:39.839Z,25.30
2018-07-09T16:02:08.019Z,25.30
2018-07-09T16:04:36.168Z,25.40
2018-07-09T16:07:04.302Z,25.50
2018-07-09T16:09:32.430Z,25.60
2018-07-09T16:12:01.492Z,25.60
2018-07-09T16:14:29.705Z,25.70
2018-07-09T16:16:57.941Z,25.60
2018-07-09T16:19:26.054Z,25.50
2018-07-09T16:21:54.288Z,25.40
2018-07-09T16:24:22.402Z,25.20
2018-07-09T16:26:50.537Z,25.30
2018-07-09T16:29:18.815Z,25.30
2018-07-09T16:31:46.827Z,25.20
2018-07-09T16:34:15.051Z,25.30
2018-07-09T16:36:43.205Z,25.30
2018-07-09T16:39:11.356Z,25.30
2018-07-09T16:44:07.405Z,25.20
2018-07-09T16:46:35.622Z,25.20
2018-07-09T16:49:03.783Z,25.20
2018-07-09T16:51:31.853Z,25.10
2018-07-09T16:53:59.999Z,25.10
2018-07-09T16:58:56.033Z,25.10
2018-07-09T17:03:52.059Z,25.30
2018-07-09T17:06:20.192Z,25.40
2018-07-09T17:08:48.341Z,25.40
2018-07-09T17:11:16.483Z,25.30
2018-07-09T17:18:40.614Z,25.10
2018-07-09T17:21:08.751Z,25.00
2018-07-09T17:23:36.903Z,24.80
2018-07-09T17:26:05.264Z,24.70
2018-07-09T17:28:33.398Z,24.60
2018-07-09T17:31:01.536Z,24.60
2018-07-09T17:33:29.700Z,24.40
2018-07-09T17:35:57.826Z,24.30
2018-07-09T17:38:25.966Z,24.20
2018-07-09T17:40:54.110Z,24.10
2018-07-09T17:43:22.262Z,24.00
2018-07-09T17:45:50.403Z,23.90
2018-07-09T17:48:18.614Z,23.90
2018-07-09T17:50:46.731Z,23.80
2018-07-09T17:53:14.889Z,23.70
2018-07-09T17:55:43.019Z,23.70
2018-07-09T17:58:11.147Z,23.60
2018-07-09T18:00:39.287Z,23.60
2018-07-09T18:03:07.427Z,23.60
2018-07-09T18:05:35.578Z,23.50
2018-07-09T18:08:03.763Z,23.50
2018-07-09T18:10:31.884Z,23.50
2018-07-09T18:13:00.014Z,23.50
2018-07-09T18:15:28.266Z,23.50
2018-07-09T18:17:56.423Z,23.40
2018-07-09T18:20:24.566Z,23.50
2018-07-09T18:22:52.974Z,23.50
2018-07-09T18:25:21.146Z,23.50
2018-07-09T18:27:49.283Z,23.60
2018-07-09T18:30:17.441Z,23.50
2018-07-09T18:32:45.585Z,23.50
2018-07-09T18:35:13.765Z,23.50
2018-07-09T18:37:41.872Z,23.50
2018-07-09T18:40:10.007Z,23.50
2018-07-09T18:45:06.210Z,23.30
2018-07-09T18:47:34.345Z,23.20
2018-07-09T18:50:02.529Z,23.20
2018-07-09T18:52:30.706Z,23.20
2018-07-09T18:54:58.850Z,23.20
2018-07-09T19:04:51.116Z,23.00
2018-07-09T19:07:30.238Z,22.90
2018-07-09T19:09:58.411Z,22.80
2018-07-09T19:12:32.090Z,22.80
2018-07-09T19:15:00.254Z,22.80
2018-07-09T19:18:13.005Z,22.80
2018-07-09T19:21:36.882Z,22.80
2018-07-09T19:24:05.226Z,22.70
2018-07-09T19:26:32.331Z,22.60
2018-07-09T19:28:59.491Z,22.60
2018-07-09T19:31:26.674Z,22.60
2018-07-09T19:33:53.845Z,22.60
2018-07-09T19:36:21.057Z,22.60
2018-07-09T19:38:48.164Z,22.60
2018-07-09T19:41:15.419Z,22.60
2018-07-09T19:43:42.587Z,22.60
2018-07-09T19:48:37.162Z,22.60
2018-07-09T19:51:04.346Z,22.60
2018-07-09T19:55:58.948Z,22.60
2018-07-09T20:00:53.530Z,22.50
2018-07-09T20:03:20.722Z,22.50
2018-07-09T20:05:47.872Z,22.50
2018-07-09T20:10:47.862Z,22.50
2018-07-09T20:13:20.611Z,22.40
2018-07-09T20:15:53.118Z,22.40
2018-07-09T20:18:20.279Z,22.40
2018-07-09T20:20:47.481Z,22.30
2018-07-09T20:23:14.614Z,22.20
2018-07-09T20:25:41.795Z,22.10
2018-07-09T20:28:09.043Z,22.10
2018-07-09T20:30:36.190Z,22.00
2018-07-09T20:33:03.352Z,22.00
2018-07-09T20:35:30.497Z,21.80
2018-07-09T20:37:57.663Z,21.70
2018-07-09T20:40:24.852Z,21.60
2018-07-09T20:42:52.004Z,21.60
2018-07-09T20:45:19.168Z,21.60
2018-07-09T20:47:46.322Z,21.60
2018-07-09T20:50:13.482Z,21.60
2018-07-09T20:52:40.647Z,21.50
2018-07-09T20:55:07.806Z,21.50
2018-07-09T20:57:34.963Z,21.50
2018-07-09T21:00:02.159Z,21.50
2018-07-09T21:02:29.309Z,21.40
2018-07-09T21:07:23.883Z,21.40
2018-07-09T21:09:51.039Z,21.40
2018-07-09T21:12:18.198Z,21.40
2018-07-09T21:17:12.804Z,21.30
2018-07-09T21:19:39.959Z,21.20
2018-07-09T21:22:07.175Z,21.10
2018-07-09T21:24:34.274Z,21.10
2018-07-09T21:27:01.456Z,21.10
2018-07-09T21:29:28.610Z,21.10
2018-07-09T21:31:55.771Z,21.10
2018-07-09T21:34:22.934Z,21.10
2018-07-09T21:36:50.095Z,21.00
2018-07-09T21:39:17.250Z,21.00
2018-07-09T21:41:44.419Z,21.00
2018-07-09T21:46:39.010Z,20.90
2018-07-09T21:49:06.158Z,20.90
2018-07-09T21:54:00.774Z,20.80
2018-07-09T21:58:55.367Z,20.70
2018-07-09T22:01:22.530Z,20.60
2018-07-09T22:06:17.128Z,20.40
2018-07-09T22:08:44.286Z,20.40
2018-07-09T22:13:38.882Z,20.30
2018-07-09T22:18:33.475Z,20.20
2018-07-09T22:21:00.630Z,20.30
2018-07-09T22:23:27.790Z,20.20
2018-07-09T22:25:54.956Z,20.20
2018-07-09T22:30:50.509Z,20.10
2018-07-09T22:33:18.650Z,20.00
2018-07-09T22:38:14.774Z,20.00
2018-07-09T22:40:42.915Z,20.00
2018-07-09T22:43:22.773Z,19.90
2018-07-09T22:45:50.927Z,19.90
2018-07-09T22:48:19.095Z,19.90
2018-07-09T22:50:47.212Z,19.80
2018-07-09T22:53:15.358Z,19.70
2018-07-09T22:55:55.062Z,19.70
2018-07-09T22:58:23.214Z,19.60
2018-07-09T23:00:51.357Z,19.60
2018-07-09T23:03:19.504Z,19.60
2018-07-09T23:05:47.643Z,19.50
2018-07-09T23:12:28.004Z,19.40
2018-07-09T23:17:16.198Z,19.40
2018-07-09T23:21:59.094Z,19.20
2018-07-09T23:24:26.747Z,19.10
2018-07-09T23:26:54.419Z,19.10
2018-07-09T23:29:21.581Z,19.00
2018-07-09T23:34:17.200Z,19.00
2018-07-09T23:36:44.451Z,19.00
2018-07-09T23:39:11.994Z,18.90
2018-07-09T23:41:39.166Z,18.90
2018-07-09T23:44:06.354Z,19.00
2018-07-09T23:46:33.506Z,18.90
2018-07-09T23:49:00.689Z,18.90
2018-07-09T23:51:27.855Z,18.80
2018-07-09T23:53:55.040Z,18.70
2018-07-09T23:58:43.919Z,18.70
